sensor_id;sensor_type;location;lat;lon;timestamp;temperature;humidity
55693;DHT22;41590;53.366;5.212;2023-05-10T04:58:35;10.80;99.90
55693;DHT22;41590;53.366;5.212;2023-05-10T05:08:03;10.70;99.90
55693;DHT22;41590;53.366;5.212;2023-05-10T05:11:01;11.10;99.90
55693;DHT22;41590;53.366;5.212;2023-05-10T05:24:22;11.20;99.90
55693;DHT22;41590;53.366;5.212;2023-05-10T05:27:51;11.20;99.90
55693;DHT22;41590;53.366;5.212;2023-05-10T05:30:40;11.00;99.90
55693;DHT22;41590;53.366;5.212;2023-05-10T05:33:14;11.20;99.90
55693;DHT22;41590;53.366;5.212;2023-05-10T05:35:47;11.00;99.90
55693;DHT22;41590;53.366;5.212;2023-05-10T05:38:55;11.20;99.90
55693;DHT22;41590;53.366;5.212;2023-05-10T05:41:26;10.80;99.90
55693;DHT22;41590;53.366;5.212;2023-05-10T05:43:57;11.50;99.90
55693;DHT22;41590;53.366;5.212;2023-05-10T05:46:44;10.90;99.90
55693;DHT22;41590;53.366;5.212;2023-05-10T05:49:17;10.90;99.90
55693;DHT22;41590;53.366;5.212;2023-05-10T05:52:09;10.90;99.90
55693;DHT22;41590;53.366;5.212;2023-05-10T05:58:16;11.20;99.90
55693;DHT22;41590;53.366;5.212;2023-05-10T06:00:56;10.90;99.90
55693;DHT22;41590;53.366;5.212;2023-05-10T06:04:04;11.20;99.90
55693;DHT22;41590;53.366;5.212;2023-05-10T06:07:02;11.00;99.90
55693;DHT22;41590;53.366;5.212;2023-05-10T06:09:46;11.40;99.90
55693;DHT22;41590;53.366;5.212;2023-05-10T06:12:27;11.10;99.90
55693;DHT22;41590;53.366;5.212;2023-05-10T06:15:18;11.50;99.90
55693;DHT22;41590;53.366;5.212;2023-05-10T06:17:56;11.10;99.90
55693;DHT22;41590;53.366;5.212;2023-05-10T06:20:50;11.60;99.90
55693;DHT22;41590;53.366;5.212;2023-05-10T06:23:37;11.20;99.90
55693;DHT22;41590;53.366;5.212;2023-05-10T06:26:24;11.80;99.90
55693;DHT22;41590;53.366;5.212;2023-05-10T06:32:49;11.60;99.90
55693;DHT22;41590;53.366;5.212;2023-05-10T06:35:15;11.30;99.90
55693;DHT22;41590;53.366;5.212;2023-05-10T06:37:43;11.80;99.90
55693;DHT22;41590;53.366;5.212;2023-05-10T06:40:18;11.30;99.90
55693;DHT22;41590;53.366;5.212;2023-05-10T06:43:00;11.30;99.90
55693;DHT22;41590;53.366;5.212;2023-05-10T06:48:54;11.70;99.90
55693;DHT22;41590;53.366;5.212;2023-05-10T06:51:28;11.50;99.90
55693;DHT22;41590;53.366;5.212;2023-05-10T06:57:21;11.40;99.90
55693;DHT22;41590;53.366;5.212;2023-05-10T06:59:49;11.50;99.90
55693;DHT22;41590;53.366;5.212;2023-05-10T07:02:27;12.00;99.90
55693;DHT22;41590;53.366;5.212;2023-05-10T07:05:10;11.40;99.90
55693;DHT22;41590;53.366;5.212;2023-05-10T07:07:45;11.90;99.90
55693;DHT22;41590;53.366;5.212;2023-05-10T07:10:12;12.10;99.90
55693;DHT22;41590;53.366;5.212;2023-05-10T07:12:41;11.90;99.90
55693;DHT22;41590;53.366;5.212;2023-05-10T07:15:38;12.10;99.90
55693;DHT22;41590;53.366;5.212;2023-05-10T07:18:32;11.90;99.90
55693;DHT22;41590;53.366;5.212;2023-05-10T07:21:01;11.90;99.90
55693;DHT22;41590;53.366;5.212;2023-05-10T07:23:29;12.00;99.90
55693;DHT22;41590;53.366;5.212;2023-05-10T07:25:55;12.30;99.90
55693;DHT22;41590;53.366;5.212;2023-05-10T07:28:59;11.80;99.90
55693;DHT22;41590;53.366;5.212;2023-05-10T07:31:26;11.80;99.90
55693;DHT22;41590;53.366;5.212;2023-05-10T07:33:57;12.30;99.90
55693;DHT22;41590;53.366;5.212;2023-05-10T07:50:51;12.50;99.90
55693;DHT22;41590;53.366;5.212;2023-05-10T07:56:38;12.30;99.90
55693;DHT22;41590;53.366;5.212;2023-05-10T07:59:08;12.50;99.90
55693;DHT22;41590;53.366;5.212;2023-05-10T08:01:42;12.30;99.90
55693;DHT22;41590;53.366;5.212;2023-05-10T08:04:15;12.70;99.90
55693;DHT22;41590;53.366;5.212;2023-05-10T08:07:15;12.50;99.90
55693;DHT22;41590;53.366;5.212;2023-05-10T08:13:08;12.70;99.90
55693;DHT22;41590;53.366;5.212;2023-05-10T08:15:46;12.90;99.90
55693;DHT22;41590;53.366;5.212;2023-05-10T08:18:32;13.20;99.90
55693;DHT22;41590;53.366;5.212;2023-05-10T08:24:23;13.20;99.90
55693;DHT22;41590;53.366;5.212;2023-05-10T08:37:51;13.40;99.90
55693;DHT22;41590;53.366;5.212;2023-05-10T08:51:03;13.40;99.90
55693;DHT22;41590;53.366;5.212;2023-05-10T08:59:34;13.10;99.90
55693;DHT22;41590;53.366;5.212;2023-05-10T09:02:10;13.00;99.90
55693;DHT22;41590;53.366;5.212;2023-05-10T09:05:10;12.80;99.90
55693;DHT22;41590;53.366;5.212;2023-05-10T09:07:43;13.00;99.90
55693;DHT22;41590;53.366;5.212;2023-05-10T09:10:10;12.80;99.90
55693;DHT22;41590;53.366;5.212;2023-05-10T09:12:56;12.90;99.90
55693;DHT22;41590;53.366;5.212;2023-05-10T09:15:22;13.10;99.90
55693;DHT22;41590;53.366;5.212;2023-05-10T09:18:12;13.10;99.90
55693;DHT22;41590;53.366;5.212;2023-05-10T09:23:36;13.20;99.90
55693;DHT22;41590;53.366;5.212;2023-05-10T09:26:17;13.30;99.90
55693;DHT22;41590;53.366;5.212;2023-05-10T09:28:59;13.40;99.90
55693;DHT22;41590;53.366;5.212;2023-05-10T09:31:50;13.20;99.90
55693;DHT22;41590;53.366;5.212;2023-05-10T09:37:59;13.60;99.90
55693;DHT22;41590;53.366;5.212;2023-05-10T09:40:27;13.90;99.90
55693;DHT22;41590;53.366;5.212;2023-05-10T09:43:10;13.60;99.90
55693;DHT22;41590;53.366;5.212;2023-05-10T09:45:48;14.10;99.90
55693;DHT22;41590;53.366;5.212;2023-05-10T09:48:33;14.10;99.90
55693;DHT22;41590;53.366;5.212;2023-05-10T09:51:25;14.00;99.90
55693;DHT22;41590;53.366;5.212;2023-05-10T09:54:13;14.10;99.90
55693;DHT22;41590;53.366;5.212;2023-05-10T09:56:44;14.00;99.90
55693;DHT22;41590;53.366;5.212;2023-05-10T09:59:25;14.20;99.90
55693;DHT22;41590;53.366;5.212;2023-05-10T10:01:55;14.00;99.90
55693;DHT22;41590;53.366;5.212;2023-05-10T10:04:22;13.90;99.90
55693;DHT22;41590;53.366;5.212;2023-05-10T10:07:01;14.10;99.90
55693;DHT22;41590;53.366;5.212;2023-05-10T10:09:29;14.00;99.90
55693;DHT22;41590;53.366;5.212;2023-05-10T10:12:02;14.10;99.90
55693;DHT22;41590;53.366;5.212;2023-05-10T10:17:41;13.80;99.90
55693;DHT22;41590;53.366;5.212;2023-05-10T10:20:09;13.90;99.90
55693;DHT22;41590;53.366;5.212;2023-05-10T10:22:57;14.20;99.90
55693;DHT22;41590;53.366;5.212;2023-05-10T10:25:23;14.30;99.90
55693;DHT22;41590;53.366;5.212;2023-05-10T10:36:07;14.40;99.90
55693;DHT22;41590;53.366;5.212;2023-05-10T10:41:27;14.50;99.90
55693;DHT22;41590;53.366;5.212;2023-05-10T10:52:43;14.30;99.90
55693;DHT22;41590;53.366;5.212;2023-05-10T10:55:15;14.30;99.90
55693;DHT22;41590;53.366;5.212;2023-05-10T10:57:50;14.40;99.90
55693;DHT22;41590;53.366;5.212;2023-05-10T11:00:31;14.50;99.90
55693;DHT22;41590;53.366;5.212;2023-05-10T11:05:47;14.60;99.90
55693;DHT22;41590;53.366;5.212;2023-05-10T11:08:41;14.60;99.90
55693;DHT22;41590;53.366;5.212;2023-05-10T11:11:18;14.30;99.90
55693;DHT22;41590;53.366;5.212;2023-05-10T11:13:53;14.40;99.90
55693;DHT22;41590;53.366;5.212;2023-05-10T11:16:27;14.50;99.90
55693;DHT22;41590;53.366;5.212;2023-05-10T11:19:05;14.40;99.90
55693;DHT22;41590;53.366;5.212;2023-05-10T11:21:33;14.30;99.90
55693;DHT22;41590;53.366;5.212;2023-05-10T11:24:13;14.50;99.90
55693;DHT22;41590;53.366;5.212;2023-05-10T11:26:44;14.50;99.90
55693;DHT22;41590;53.366;5.212;2023-05-10T11:29:15;14.50;99.90
55693;DHT22;41590;53.366;5.212;2023-05-10T11:31:59;14.50;99.90
55693;DHT22;41590;53.366;5.212;2023-05-10T11:34:58;14.60;99.90
55693;DHT22;41590;53.366;5.212;2023-05-10T17:33:39;14.90;99.90
55693;DHT22;41590;53.366;5.212;2023-05-10T17:36:05;11.60;99.90
55693;DHT22;41590;53.366;5.212;2023-05-10T17:48:23;11.60;99.90
55693;DHT22;41590;53.366;5.212;2023-05-10T17:50:55;11.30;99.90
55693;DHT22;41590;53.366;5.212;2023-05-10T17:53:22;11.30;99.90
55693;DHT22;41590;53.366;5.212;2023-05-10T17:55:51;11.30;99.90
55693;DHT22;41590;53.366;5.212;2023-05-10T17:58:18;11.30;99.90
55693;DHT22;41590;53.366;5.212;2023-05-10T18:01:00;11.20;99.90
55693;DHT22;41590;53.366;5.212;2023-05-10T18:03:25;11.20;99.90
55693;DHT22;41590;53.366;5.212;2023-05-10T18:47:55;11.30;99.90
55693;DHT22;41590;53.366;5.212;2023-05-10T18:50:21;10.80;99.90
55693;DHT22;41590;53.366;5.212;2023-05-10T18:52:47;11.00;99.90
55693;DHT22;41590;53.366;5.212;2023-05-10T19:19:53;10.70;99.90
55693;DHT22;41590;53.366;5.212;2023-05-10T19:22:22;10.20;99.90
55693;DHT22;41590;53.366;5.212;2023-05-10T19:24:48;9.80;99.90
55693;DHT22;41590;53.366;5.212;2023-05-10T19:27:20;10.10;99.90
55693;DHT22;41590;53.366;5.212;2023-05-10T19:29:52;9.90;99.90
55693;DHT22;41590;53.366;5.212;2023-05-10T19:32:18;10.10;99.90
55693;DHT22;41590;53.366;5.212;2023-05-10T19:34:46;10.00;99.90
55693;DHT22;41590;53.366;5.212;2023-05-10T19:37:11;9.90;99.90
55693;DHT22;41590;53.366;5.212;2023-05-10T19:42:59;9.90;99.90
55693;DHT22;41590;53.366;5.212;2023-05-10T19:45:44;9.80;99.90
55693;DHT22;41590;53.366;5.212;2023-05-10T19:51:35;10.00;99.90
55693;DHT22;41590;53.366;5.212;2023-05-10T19:54:01;9.80;99.90
55693;DHT22;41590;53.366;5.212;2023-05-10T19:56:29;9.80;99.90
55693;DHT22;41590;53.366;5.212;2023-05-10T19:58:55;9.80;99.90
55693;DHT22;41590;53.366;5.212;2023-05-10T20:01:22;9.80;99.90
55693;DHT22;41590;53.366;5.212;2023-05-10T20:04:01;10.10;99.90
55693;DHT22;41590;53.366;5.212;2023-05-10T20:06:29;9.80;99.90
55693;DHT22;41590;53.366;5.212;2023-05-10T20:08:57;10.00;99.90
55693;DHT22;41590;53.366;5.212;2023-05-10T20:11:22;10.10;99.90
55693;DHT22;41590;53.366;5.212;2023-05-10T20:13:52;9.70;99.90
55693;DHT22;41590;53.366;5.212;2023-05-10T20:16:21;10.00;99.90
55693;DHT22;41590;53.366;5.212;2023-05-10T20:18:59;9.70;99.90
55693;DHT22;41590;53.366;5.212;2023-05-10T20:21:31;9.90;99.90
55693;DHT22;41590;53.366;5.212;2023-05-10T20:23:58;9.70;99.90
55693;DHT22;41590;53.366;5.212;2023-05-10T20:26:25;9.70;99.90
55693;DHT22;41590;53.366;5.212;2023-05-10T20:50:43;9.40;99.90
55693;DHT22;41590;53.366;5.212;2023-05-10T20:53:12;9.40;99.90
55693;DHT22;41590;53.366;5.212;2023-05-10T20:55:41;9.40;99.90
55693;DHT22;41590;53.366;5.212;2023-05-10T20:58:19;9.40;99.90
55693;DHT22;41590;53.366;5.212;2023-05-10T21:00:45;9.40;99.90
55693;DHT22;41590;53.366;5.212;2023-05-10T21:03:13;9.40;99.90
55693;DHT22;41590;53.366;5.212;2023-05-10T21:05:48;9.20;99.90
55693;DHT22;41590;53.366;5.212;2023-05-10T21:08:42;9.30;99.90
55693;DHT22;41590;53.366;5.212;2023-05-10T21:11:11;9.00;99.90
55693;DHT22;41590;53.366;5.212;2023-05-10T21:13:38;9.40;99.90
55693;DHT22;41590;53.366;5.212;2023-05-10T21:16:04;9.30;99.90
55693;DHT22;41590;53.366;5.212;2023-05-10T21:18:31;9.00;99.90
55693;DHT22;41590;53.366;5.212;2023-05-10T21:20:59;9.00;99.90
55693;DHT22;41590;53.366;5.212;2023-05-10T21:23:25;8.90;99.90
55693;DHT22;41590;53.366;5.212;2023-05-10T21:25:51;9.00;99.90
55693;DHT22;41590;53.366;5.212;2023-05-10T21:28:31;9.30;99.90
55693;DHT22;41590;53.366;5.212;2023-05-10T21:30:59;8.90;99.90
55693;DHT22;41590;53.366;5.212;2023-05-10T21:33:25;9.00;99.90
55693;DHT22;41590;53.366;5.212;2023-05-10T21:35:51;9.00;99.90
55693;DHT22;41590;53.366;5.212;2023-05-10T21:38:17;9.00;99.90
55693;DHT22;41590;53.366;5.212;2023-05-10T21:40:46;9.10;99.90
55693;DHT22;41590;53.366;5.212;2023-05-10T21:43:31;8.90;99.90
